createdAt,value
2019-05-02T00:00:20.999Z,94.20
2019-05-02T00:01:30.288Z,94.20
2019-05-02T00:02:34.682Z,94.10
2019-05-02T00:03:41.229Z,94.10
2019-05-02T00:04:45.611Z,93.90
2019-05-02T00:05:50.132Z,94.30
2019-05-02T00:07:14.528Z,94.30
2019-05-02T00:08:17.010Z,94.30
2019-05-02T00:09:21.918Z,94.40
2019-05-02T00:10:26.796Z,94.50
2019-05-02T00:11:31.469Z,94.50
2019-05-02T00:12:36.014Z,94.50
2019-05-02T00:13:40.452Z,95.00
2019-05-02T00:14:45.286Z,94.70
2019-05-02T00:15:51.163Z,94.80
2019-05-02T00:16:55.459Z,94.90
2019-05-02T00:18:01.468Z,94.90
2019-05-02T00:19:09.211Z,95.30
2019-05-02T00:20:12.514Z,94.90
2019-05-02T00:21:17.171Z,94.90
2019-05-02T00:22:21.950Z,94.80
2019-05-02T00:23:27.934Z,94.80
2019-05-02T00:24:34.004Z,94.80
2019-05-02T00:25:38.692Z,95.00
2019-05-02T00:26:43.039Z,95.00
2019-05-02T00:27:47.411Z,95.10
2019-05-02T00:28:51.840Z,95.10
2019-05-02T00:29:58.644Z,95.20
2019-05-02T00:31:07.358Z,95.30
2019-05-02T00:32:10.823Z,95.60
2019-05-02T00:33:15.552Z,95.70
2019-05-02T00:34:20.056Z,96.00
2019-05-02T00:35:24.400Z,96.00
2019-05-02T00:36:28.751Z,96.20
2019-05-02T00:37:33.190Z,96.30
2019-05-02T00:38:38.341Z,96.40
2019-05-02T00:39:45.207Z,96.60
2019-05-02T00:40:49.670Z,96.70
2019-05-02T00:41:54.224Z,96.80
2019-05-02T00:42:59.591Z,97.00
2019-05-02T00:44:06.120Z,96.80
2019-05-02T00:45:10.490Z,97.00
2019-05-02T00:46:14.783Z,97.20
2019-05-02T00:47:37.298Z,97.30
2019-05-02T00:48:59.667Z,97.40
2019-05-02T00:50:06.198Z,97.60
2019-05-02T00:51:08.417Z,97.90
2019-05-02T00:52:12.810Z,98.20
2019-05-02T00:53:17.103Z,98.40
2019-05-02T00:54:24.196Z,98.70
2019-05-02T00:55:28.860Z,98.70
2019-05-02T00:56:33.499Z,98.90
2019-05-02T00:57:37.793Z,99.30
2019-05-02T00:58:42.138Z,99.50
2019-05-02T00:59:46.426Z,99.70
2019-05-02T01:01:19.128Z,99.90
2019-05-02T01:02:29.583Z,99.90
2019-05-02T01:03:34.755Z,99.90
2019-05-02T01:04:40.852Z,99.90
2019-05-02T01:05:45.215Z,99.90
2019-05-02T01:06:50.776Z,99.90
2019-05-02T01:07:55.999Z,99.90
2019-05-02T01:09:01.333Z,99.90
2019-05-02T01:10:06.344Z,99.90
2019-05-02T01:11:10.680Z,99.90
2019-05-02T01:12:25.814Z,99.90
2019-05-02T01:13:20.999Z,99.90
2019-05-02T01:14:31.335Z,99.90
2019-05-02T01:15:31.447Z,99.90
2019-05-02T01:16:35.774Z,99.90
2019-05-02T01:17:40.147Z,99.90
2019-05-02T01:18:44.500Z,99.90
2019-05-02T01:19:51.393Z,99.90
2019-05-02T01:20:58.111Z,99.90
2019-05-02T01:22:00.995Z,99.90
2019-05-02T01:23:05.857Z,99.90
2019-05-02T01:24:10.244Z,99.90
2019-05-02T01:25:15.811Z,99.90
2019-05-02T01:26:24.234Z,99.90
2019-05-02T01:27:47.849Z,99.90
2019-05-02T01:28:58.249Z,99.90
2019-05-02T01:30:21.614Z,99.90
2019-05-02T01:31:49.870Z,99.90
2019-05-02T01:33:09.068Z,99.90
2019-05-02T01:34:31.233Z,99.90
2019-05-02T01:35:50.024Z,99.90
2019-05-02T01:37:02.955Z,99.90
2019-05-02T01:38:15.432Z,99.90
2019-05-02T01:39:19.753Z,99.90
2019-05-02T01:40:24.038Z,99.90
2019-05-02T01:41:29.198Z,99.90
2019-05-02T01:42:40.056Z,99.90
2019-05-02T01:43:40.392Z,99.90
2019-05-02T01:44:44.734Z,99.90
2019-05-02T01:45:49.168Z,99.90
2019-05-02T01:46:54.077Z,99.90
2019-05-02T01:47:59.604Z,99.90
2019-05-02T01:49:04.286Z,99.90
2019-05-02T01:50:08.770Z,99.90
2019-05-02T01:51:13.083Z,99.90
2019-05-02T01:52:18.881Z,99.90
2019-05-02T01:53:23.577Z,99.90
2019-05-02T01:54:27.889Z,99.90
2019-05-02T01:55:32.268Z,99.90
2019-05-02T01:56:36.617Z,99.90
2019-05-02T01:57:44.690Z,99.90
2019-05-02T01:58:47.039Z,99.90
2019-05-02T01:59:51.403Z,99.90
2019-05-02T02:00:55.743Z,99.90
2019-05-02T02:02:00.197Z,99.90
2019-05-02T02:03:09.127Z,99.90
2019-05-02T02:04:10.589Z,99.90
2019-05-02T02:05:15.099Z,99.90
2019-05-02T02:06:19.499Z,99.90
2019-05-02T02:07:23.854Z,99.90
2019-05-02T02:08:32.551Z,99.90
2019-05-02T02:09:34.233Z,99.90
2019-05-02T02:10:38.631Z,99.90
2019-05-02T02:11:43.336Z,99.90
2019-05-02T02:13:02.871Z,99.90
2019-05-02T02:13:53.795Z,99.90
2019-05-02T02:14:58.155Z,99.90
2019-05-02T02:16:04.471Z,99.90
2019-05-02T02:17:10.179Z,99.90
2019-05-02T02:18:15.727Z,99.90
2019-05-02T02:19:48.291Z,99.90
2019-05-02T02:21:09.420Z,99.90
2019-05-02T02:22:22.713Z,99.90
2019-05-02T02:23:37.899Z,99.90
2019-05-02T02:24:45.640Z,99.90
2019-05-02T02:25:53.538Z,99.90
2019-05-02T02:26:57.936Z,99.90
2019-05-02T02:28:02.269Z,99.90
2019-05-02T02:29:09.218Z,99.90
2019-05-02T02:30:17.529Z,99.90
2019-05-02T02:31:20.956Z,99.90
2019-05-02T02:32:27.159Z,99.90
2019-05-02T02:33:31.272Z,99.90
2019-05-02T02:34:35.615Z,99.90
2019-05-02T02:35:49.496Z,99.90
2019-05-02T02:36:45.973Z,99.90
2019-05-02T02:37:53.055Z,99.90
2019-05-02T02:38:56.582Z,99.90
2019-05-02T02:40:00.983Z,99.90
2019-05-02T02:41:06.335Z,99.90
2019-05-02T02:42:11.491Z,99.90
2019-05-02T02:43:32.802Z,99.90
2019-05-02T02:44:41.901Z,99.90
2019-05-02T02:45:59.725Z,99.90
2019-05-02T02:47:05.233Z,99.90
2019-05-02T02:48:09.717Z,99.90
2019-05-02T02:49:21.420Z,99.90
2019-05-02T02:50:20.135Z,99.90
2019-05-02T02:51:26.258Z,99.90
2019-05-02T02:52:30.591Z,99.90
2019-05-02T02:53:35.016Z,99.90
2019-05-02T02:54:43.284Z,99.90
2019-05-02T02:55:45.541Z,99.90
2019-05-02T02:56:50.015Z,99.90
2019-05-02T02:57:58.598Z,99.90
2019-05-02T02:59:00.408Z,99.90
2019-05-02T03:00:08.330Z,99.90
2019-05-02T03:01:11.921Z,99.90
2019-05-02T03:02:16.331Z,99.90
2019-05-02T03:03:27.315Z,99.90
2019-05-02T03:04:26.655Z,99.90
2019-05-02T03:05:30.983Z,99.90
2019-05-02T03:06:38.423Z,99.90
2019-05-02T03:07:41.649Z,99.90
2019-05-02T03:08:49.075Z,99.90
2019-05-02T03:09:51.970Z,99.90
2019-05-02T03:10:56.515Z,99.90
2019-05-02T03:12:26.335Z,99.90
2019-05-02T03:13:52.714Z,99.90
2019-05-02T03:14:52.932Z,99.90
2019-05-02T03:16:00.452Z,99.90
2019-05-02T03:17:03.955Z,99.90
2019-05-02T03:18:08.397Z,99.90
2019-05-02T03:19:14.800Z,99.90
2019-05-02T03:20:18.842Z,99.90
2019-05-02T03:21:23.271Z,99.90
2019-05-02T03:22:27.694Z,99.90
2019-05-02T03:23:32.164Z,99.90
2019-05-02T03:24:44.286Z,99.90
2019-05-02T03:25:50.748Z,99.90
2019-05-02T03:26:55.180Z,99.90
2019-05-02T03:27:57.050Z,99.90
2019-05-02T03:29:01.476Z,99.90
2019-05-02T03:30:06.366Z,99.90
2019-05-02T03:31:22.842Z,99.90
2019-05-02T03:32:32.068Z,99.90
2019-05-02T03:33:23.697Z,99.90
2019-05-02T03:34:45.056Z,99.90
2019-05-02T03:35:42.580Z,99.90
2019-05-02T03:36:40.590Z,99.90
2019-05-02T03:37:51.354Z,99.90
2019-05-02T03:38:54.149Z,99.90
2019-05-02T03:40:00.623Z,99.90
2019-05-02T03:41:04.759Z,99.90
2019-05-02T03:42:09.287Z,99.90
2019-05-02T03:43:19.158Z,99.90
2019-05-02T03:44:26.052Z,99.90
2019-05-02T03:45:32.325Z,99.90
2019-05-02T03:46:32.745Z,99.90
2019-05-02T03:47:43.869Z,99.90
2019-05-02T03:48:43.246Z,99.90
2019-05-02T03:49:51.765Z,99.90
2019-05-02T03:50:53.975Z,99.90
2019-05-02T03:52:02.909Z,99.90
2019-05-02T03:53:04.887Z,99.90
2019-05-02T03:54:10.438Z,99.90
2019-05-02T03:55:15.046Z,99.90
2019-05-02T03:56:19.463Z,99.90
2019-05-02T03:57:31.700Z,99.90
2019-05-02T03:58:31.456Z,99.90
2019-05-02T03:59:38.642Z,99.90
2019-05-02T04:00:42.254Z,99.90
2019-05-02T04:01:46.796Z,99.90
2019-05-02T04:02:59.270Z,99.90
2019-05-02T04:03:57.307Z,99.90
2019-05-02T04:05:02.935Z,99.90
2019-05-02T04:06:07.520Z,99.90
2019-05-02T04:07:12.839Z,99.90
2019-05-02T04:08:20.980Z,99.90
2019-05-02T04:09:38.708Z,99.90
2019-05-02T04:11:18.508Z,99.90
2019-05-02T04:12:23.032Z,99.90
2019-05-02T04:13:30.034Z,99.90
2019-05-02T04:14:38.952Z,99.90
2019-05-02T04:15:41.356Z,99.90
2019-05-02T04:16:48.676Z,99.90
2019-05-02T04:17:52.468Z,99.90
2019-05-02T04:18:58.374Z,99.90
2019-05-02T04:20:09.471Z,99.90
2019-05-02T04:21:09.747Z,99.90
2019-05-02T04:22:14.800Z,99.90
2019-05-02T04:23:21.241Z,99.90
2019-05-02T04:24:26.948Z,99.90
2019-05-02T04:25:33.883Z,99.90
2019-05-02T04:26:38.983Z,99.90
2019-05-02T04:27:43.762Z,99.90
2019-05-02T04:28:51.799Z,99.90
2019-05-02T04:29:54.342Z,99.90
2019-05-02T04:30:58.737Z,99.90
2019-05-02T04:32:10.827Z,99.90
2019-05-02T04:33:09.265Z,99.90
2019-05-02T04:34:15.412Z,99.90
2019-05-02T04:35:19.670Z,99.90
2019-05-02T04:36:24.085Z,99.90
2019-05-02T04:37:28.409Z,99.90
2019-05-02T04:38:46.605Z,99.90
2019-05-02T04:39:39.233Z,99.90
2019-05-02T04:40:46.487Z,99.90
2019-05-02T04:41:50.065Z,99.90
2019-05-02T04:43:01.946Z,99.90
2019-05-02T04:44:01.685Z,99.90
2019-05-02T04:45:21.743Z,99.90
2019-05-02T04:46:22.228Z,99.90
2019-05-02T04:47:21.866Z,99.90
2019-05-02T04:48:24.482Z,99.90
2019-05-02T04:49:35.079Z,99.90
2019-05-02T04:50:37.659Z,99.90
2019-05-02T04:51:40.930Z,99.90
2019-05-02T04:52:48.232Z,99.90
2019-05-02T04:53:51.303Z,99.90
2019-05-02T04:55:08.311Z,99.90
2019-05-02T04:56:07.062Z,99.90
2019-05-02T04:57:08.437Z,99.90
2019-05-02T04:58:23.984Z,99.90
2019-05-02T04:59:22.680Z,99.90
2019-05-02T05:00:28.788Z,99.90
2019-05-02T05:01:43.401Z,99.90
2019-05-02T05:02:40.187Z,99.90
2019-05-02T05:03:49.163Z,99.90
2019-05-02T05:04:50.734Z,99.90
2019-05-02T05:05:59.431Z,99.90
2019-05-02T05:07:01.535Z,99.90
2019-05-02T05:08:07.710Z,99.90
2019-05-02T05:09:14.832Z,99.90
2019-05-02T05:10:18.583Z,99.90
2019-05-02T05:11:24.971Z,99.90
2019-05-02T05:12:32.612Z,99.90
2019-05-02T05:13:36.921Z,99.90
2019-05-02T05:14:43.226Z,99.90
2019-05-02T05:15:51.190Z,99.90
2019-05-02T05:16:55.728Z,99.90
2019-05-02T05:17:59.300Z,99.90
2019-05-02T05:19:03.759Z,99.90
2019-05-02T05:20:14.086Z,99.90
2019-05-02T05:21:14.172Z,99.90
2019-05-02T05:22:18.671Z,99.90
2019-05-02T05:23:34.446Z,99.90
2019-05-02T05:24:44.089Z,99.90
2019-05-02T05:25:55.681Z,99.90
2019-05-02T05:27:00.472Z,99.90
2019-05-02T05:28:06.075Z,99.90
2019-05-02T05:29:13.991Z,99.90
2019-05-02T05:30:18.686Z,99.90
2019-05-02T05:31:24.276Z,99.90
2019-05-02T05:32:28.918Z,99.90
2019-05-02T05:33:33.230Z,99.90
2019-05-02T05:34:38.009Z,99.90
2019-05-02T05:37:13.256Z,99.90
2019-05-02T05:38:15.516Z,99.90
2019-05-02T05:39:21.162Z,99.90
2019-05-02T05:40:30.341Z,99.90
2019-05-02T05:41:31.669Z,99.80
2019-05-02T05:42:37.925Z,99.80
2019-05-02T05:43:44.871Z,99.80
2019-05-02T05:44:51.442Z,99.70
2019-05-02T05:46:09.157Z,99.50
2019-05-02T05:47:11.985Z,99.60
2019-05-02T05:48:14.881Z,99.60
2019-05-02T05:49:21.805Z,99.10
2019-05-02T05:50:25.228Z,99.00
2019-05-02T05:51:29.563Z,98.80
2019-05-02T05:52:38.848Z,98.90
2019-05-02T05:53:47.710Z,98.50
2019-05-02T05:54:51.772Z,98.40
2019-05-02T05:55:58.923Z,98.30
2019-05-02T05:57:02.265Z,98.50
2019-05-02T05:58:14.597Z,97.90
2019-05-02T05:59:12.646Z,97.90
2019-05-02T06:00:23.064Z,97.60
2019-05-02T06:01:26.248Z,97.40
2019-05-02T06:02:29.369Z,97.20
2019-05-02T06:03:34.105Z,97.10
2019-05-02T06:04:39.832Z,96.90
2019-05-02T06:05:44.187Z,97.00
2019-05-02T06:06:48.594Z,97.00
2019-05-02T06:07:52.904Z,96.90
2019-05-02T06:08:57.317Z,96.70
2019-05-02T06:10:07.848Z,96.60
2019-05-02T06:11:08.694Z,96.60
2019-05-02T06:12:13.144Z,96.30
2019-05-02T06:13:17.514Z,96.20
2019-05-02T06:14:24.914Z,96.00
2019-05-02T06:15:28.063Z,95.80
2019-05-02T06:16:32.433Z,95.70
2019-05-02T06:17:36.760Z,95.30
2019-05-02T06:18:41.790Z,95.20
2019-05-02T06:19:48.296Z,95.40
2019-05-02T06:20:53.301Z,95.60
2019-05-02T06:21:57.637Z,95.30
2019-05-02T06:23:02.025Z,95.30
2019-05-02T06:24:06.461Z,95.30
2019-05-02T06:25:13.262Z,95.20
2019-05-02T06:26:17.653Z,95.20
2019-05-02T06:27:26.110Z,95.10
2019-05-02T06:28:30.021Z,95.10
2019-05-02T06:29:34.675Z,94.80
2019-05-02T06:30:39.281Z,94.50
2019-05-02T06:31:44.477Z,94.70
2019-05-02T06:32:50.049Z,94.60
2019-05-02T06:33:55.025Z,94.50
2019-05-02T06:34:59.417Z,94.10
2019-05-02T06:36:03.770Z,94.00
2019-05-02T06:37:13.694Z,94.00
2019-05-02T06:38:14.550Z,93.80
2019-05-02T06:39:18.861Z,93.80
2019-05-02T06:40:23.379Z,93.60
2019-05-02T06:41:27.696Z,93.80
2019-05-02T06:42:32.695Z,93.70
2019-05-02T06:43:41.132Z,93.30
2019-05-02T06:44:47.496Z,93.70
2019-05-02T06:45:51.870Z,93.30
2019-05-02T06:46:59.175Z,92.90
2019-05-02T06:48:03.454Z,93.10
2019-05-02T06:49:07.773Z,93.30
2019-05-02T06:50:13.820Z,93.20
2019-05-02T06:51:20.768Z,93.20
2019-05-02T06:52:27.223Z,93.10
2019-05-02T06:53:30.437Z,93.00
2019-05-02T06:54:34.917Z,92.90
2019-05-02T06:55:39.292Z,92.90
2019-05-02T06:56:47.997Z,93.00
2019-05-02T06:57:51.685Z,93.00
2019-05-02T06:58:55.741Z,93.10
2019-05-02T07:00:00.112Z,93.30
2019-05-02T07:01:04.739Z,93.30
2019-05-02T07:02:09.149Z,93.40
2019-05-02T07:03:13.557Z,93.40
2019-05-02T07:04:22.955Z,93.60
2019-05-02T07:05:27.233Z,93.60
2019-05-02T07:06:34.786Z,93.70
2019-05-02T07:07:37.148Z,93.70
2019-05-02T07:08:42.057Z,93.90
2019-05-02T07:09:46.668Z,93.80
2019-05-02T07:10:55.850Z,93.60
2019-05-02T07:12:01.229Z,93.70
2019-05-02T07:13:10.760Z,93.70
2019-05-02T07:14:13.625Z,93.70
2019-05-02T07:15:33.580Z,93.60
2019-05-02T07:16:40.533Z,93.60
2019-05-02T07:17:45.997Z,94.20
2019-05-02T07:18:53.348Z,94.20
2019-05-02T07:20:03.860Z,94.40
2019-05-02T07:21:07.085Z,94.50
2019-05-02T07:22:11.567Z,94.60
2019-05-02T07:23:18.978Z,94.70
2019-05-02T07:24:25.299Z,94.70
2019-05-02T07:25:30.379Z,94.90
2019-05-02T07:26:34.913Z,94.90
2019-05-02T07:27:39.437Z,95.00
2019-05-02T07:28:45.526Z,95.00
2019-05-02T07:29:52.124Z,95.10
2019-05-02T07:30:56.150Z,95.40
2019-05-02T07:32:00.562Z,95.60
2019-05-02T07:33:05.047Z,95.60
2019-05-02T07:34:13.013Z,95.80
2019-05-02T07:35:19.232Z,95.60
2019-05-02T07:36:21.675Z,95.60
2019-05-02T07:37:26.048Z,96.00
2019-05-02T07:38:30.496Z,96.20
2019-05-02T07:39:36.133Z,96.40
2019-05-02T07:40:40.882Z,96.70
2019-05-02T07:41:45.212Z,96.80
2019-05-02T07:42:49.672Z,96.90
2019-05-02T07:43:56.322Z,96.80
2019-05-02T07:45:04.331Z,96.90
2019-05-02T07:46:06.413Z,97.10
2019-05-02T07:47:10.827Z,97.10
2019-05-02T07:48:18.931Z,97.10
2019-05-02T07:49:26.529Z,97.10
2019-05-02T07:50:29.664Z,97.10
2019-05-02T07:51:34.311Z,97.10
2019-05-02T07:52:41.083Z,97.10
2019-05-02T07:53:48.488Z,96.90
2019-05-02T07:54:51.089Z,96.90
2019-05-02T07:55:55.525Z,97.10
2019-05-02T07:57:02.317Z,97.50
2019-05-02T07:58:06.969Z,97.70
2019-05-02T07:59:13.240Z,97.90
2019-05-02T08:00:19.344Z,98.10
2019-05-02T08:01:23.675Z,98.20
2019-05-02T08:02:28.179Z,98.20
2019-05-02T08:03:33.564Z,98.30
2019-05-02T08:04:38.669Z,98.20
2019-05-02T08:05:43.284Z,98.20
2019-05-02T08:06:48.147Z,98.20
2019-05-02T08:07:55.010Z,98.10
2019-05-02T08:09:07.295Z,98.20
2019-05-02T08:10:11.548Z,98.30
2019-05-02T08:11:27.188Z,98.50
2019-05-02T08:12:32.797Z,98.40
2019-05-02T08:13:39.047Z,98.30
2019-05-02T08:14:53.226Z,98.30
2019-05-02T08:15:59.173Z,98.40
2019-05-02T08:17:16.301Z,98.50
2019-05-02T08:18:14.535Z,98.40
2019-05-02T08:19:19.261Z,98.30
2019-05-02T08:20:23.599Z,98.20
2019-05-02T08:21:32.493Z,98.00
2019-05-02T08:22:34.155Z,98.00
2019-05-02T08:23:38.957Z,97.80
2019-05-02T08:24:43.297Z,97.80
2019-05-02T08:25:47.848Z,97.90
2019-05-02T08:27:06.321Z,98.00
2019-05-02T08:28:17.905Z,98.10
2019-05-02T08:29:23.262Z,97.90
2019-05-02T08:30:35.307Z,98.00
2019-05-02T08:31:40.277Z,98.50
2019-05-02T08:32:44.721Z,98.10
2019-05-02T08:33:49.129Z,98.20
2019-05-02T08:34:53.543Z,98.30
2019-05-02T08:35:58.105Z,98.40
2019-05-02T08:37:04.781Z,98.30
2019-05-02T08:38:12.544Z,98.40
2019-05-02T08:39:15.544Z,98.60
2019-05-02T08:40:20.219Z,98.80
2019-05-02T08:41:24.567Z,98.80
2019-05-02T08:42:32.600Z,99.20
2019-05-02T08:43:35.068Z,99.90
2019-05-02T08:44:50.319Z,99.90
2019-05-02T08:45:45.442Z,99.90
2019-05-02T08:46:51.339Z,99.90
2019-05-02T08:47:55.890Z,99.90
2019-05-02T08:49:00.286Z,99.90
2019-05-02T08:50:07.700Z,99.90
2019-05-02T08:51:11.536Z,99.90
2019-05-02T08:52:16.068Z,99.90
2019-05-02T08:53:22.087Z,99.90
2019-05-02T08:54:27.971Z,99.90
2019-05-02T08:55:32.686Z,99.90
2019-05-02T08:56:37.072Z,99.90
2019-05-02T08:57:41.447Z,99.90
2019-05-02T08:58:49.911Z,99.90
2019-05-02T08:59:55.384Z,99.90
2019-05-02T09:00:58.005Z,99.90
2019-05-02T09:02:02.403Z,99.90
2019-05-02T09:03:07.014Z,99.90
2019-05-02T09:04:11.464Z,99.90
2019-05-02T09:05:16.261Z,99.90
2019-05-02T09:06:22.639Z,99.90
2019-05-02T09:07:31.409Z,99.90
2019-05-02T09:08:33.149Z,99.90
2019-05-02T09:09:37.569Z,99.90
2019-05-02T09:10:43.402Z,99.90
2019-05-02T09:12:03.271Z,99.90
2019-05-02T09:12:55.883Z,99.90
2019-05-02T09:14:02.087Z,99.90
2019-05-02T09:15:07.923Z,99.90
2019-05-02T09:16:12.821Z,99.90
2019-05-02T09:17:17.276Z,99.90
2019-05-02T09:18:22.973Z,99.90
2019-05-02T09:19:28.010Z,99.90
2019-05-02T09:20:32.440Z,99.90
2019-05-02T09:21:36.776Z,99.90
2019-05-02T09:22:41.830Z,99.90
2019-05-02T09:23:46.616Z,99.90
2019-05-02T09:24:52.019Z,99.90
2019-05-02T09:25:56.507Z,99.90
2019-05-02T09:27:02.481Z,99.90
2019-05-02T09:28:07.048Z,99.90
2019-05-02T09:29:12.606Z,99.90
2019-05-02T09:30:22.824Z,99.90
2019-05-02T09:31:24.007Z,99.90
2019-05-02T09:32:28.478Z,99.90
2019-05-02T09:33:36.857Z,99.90
2019-05-02T09:34:39.062Z,99.90
2019-05-02T09:35:43.432Z,99.90
2019-05-02T09:36:48.627Z,99.90
2019-05-02T09:37:53.033Z,99.90
2019-05-02T09:38:57.751Z,99.90
2019-05-02T09:40:02.366Z,99.90
2019-05-02T09:41:17.005Z,99.90
2019-05-02T09:42:16.339Z,99.90
2019-05-02T09:43:22.735Z,99.90
2019-05-02T09:44:26.768Z,99.90
2019-05-02T09:45:36.861Z,99.90
2019-05-02T09:46:38.648Z,99.90
2019-05-02T09:47:55.748Z,99.90
2019-05-02T09:48:49.067Z,99.90
2019-05-02T09:50:20.715Z,99.90
2019-05-02T09:51:23.002Z,99.90
2019-05-02T09:52:27.437Z,99.90
2019-05-02T09:53:32.361Z,99.90
2019-05-02T09:54:41.786Z,99.90
2019-05-02T09:55:50.228Z,99.90
2019-05-02T09:56:49.198Z,99.90
2019-05-02T09:57:53.595Z,99.90
2019-05-02T09:59:06.191Z,99.90
2019-05-02T10:00:07.195Z,99.90
2019-05-02T10:01:22.397Z,99.90
2019-05-02T10:02:26.877Z,99.90
2019-05-02T10:03:32.040Z,99.90
2019-05-02T10:04:36.463Z,99.90
2019-05-02T10:05:43.038Z,99.90
2019-05-02T10:06:47.153Z,99.90
2019-05-02T10:07:52.619Z,99.90
2019-05-02T10:08:57.163Z,99.90
2019-05-02T10:10:03.183Z,99.90
2019-05-02T10:11:08.150Z,99.90
2019-05-02T10:12:12.567Z,99.90
2019-05-02T10:13:16.938Z,99.90
2019-05-02T10:14:22.586Z,99.90
2019-05-02T10:15:27.383Z,99.90
2019-05-02T10:16:32.044Z,99.90
2019-05-02T10:17:37.559Z,99.90
2019-05-02T10:18:43.105Z,99.90
2019-05-02T10:19:49.096Z,99.90
2019-05-02T10:20:53.820Z,99.90
2019-05-02T10:21:58.247Z,99.90
2019-05-02T10:23:02.996Z,99.90
2019-05-02T10:24:07.740Z,99.90
2019-05-02T10:25:13.356Z,99.90
2019-05-02T10:26:19.998Z,99.90
2019-05-02T10:27:24.076Z,99.90
2019-05-02T10:28:28.430Z,99.90
2019-05-02T10:29:33.142Z,99.90
2019-05-02T10:30:37.953Z,99.90
2019-05-02T10:31:42.723Z,99.90
2019-05-02T10:32:51.463Z,99.90
2019-05-02T10:33:53.122Z,99.90
2019-05-02T10:34:57.497Z,99.90
2019-05-02T10:36:02.736Z,99.90
2019-05-02T10:37:07.377Z,99.90
2019-05-02T10:38:17.631Z,99.60
2019-05-02T10:39:17.812Z,99.30
2019-05-02T10:40:22.581Z,99.10
2019-05-02T10:41:33.551Z,99.00
2019-05-02T10:42:33.349Z,98.90
2019-05-02T10:43:37.673Z,98.70
2019-05-02T10:44:42.700Z,98.40
2019-05-02T10:45:52.880Z,98.40
2019-05-02T10:46:59.561Z,98.30
2019-05-02T10:48:04.228Z,98.00
2019-05-02T10:49:15.767Z,97.40
2019-05-02T10:50:24.079Z,97.30
2019-05-02T10:51:35.318Z,97.00
2019-05-02T10:52:39.753Z,96.90
2019-05-02T10:53:47.007Z,96.50
2019-05-02T10:54:50.229Z,96.60
2019-05-02T10:55:54.531Z,96.60
2019-05-02T10:56:58.888Z,95.90
2019-05-02T10:58:03.422Z,96.00
2019-05-02T10:59:07.809Z,95.90
2019-05-02T11:00:15.335Z,95.90
2019-05-02T11:01:21.837Z,95.80
2019-05-02T11:02:35.861Z,95.50
2019-05-02T11:03:47.227Z,95.30
2019-05-02T11:04:52.538Z,95.30
2019-05-02T11:06:05.569Z,95.30
2019-05-02T11:07:05.184Z,95.40
2019-05-02T11:08:11.889Z,95.40
2019-05-02T11:09:16.735Z,95.50
2019-05-02T11:10:21.867Z,95.60
2019-05-02T11:11:26.356Z,95.60
2019-05-02T11:12:44.101Z,95.50
2019-05-02T11:13:53.402Z,96.00
2019-05-02T11:15:12.711Z,95.70
2019-05-02T11:16:32.114Z,95.80
2019-05-02T11:17:39.207Z,95.80
2019-05-02T11:19:09.064Z,95.40
2019-05-02T11:20:13.889Z,95.50
2019-05-02T11:21:18.912Z,95.30
2019-05-02T11:22:23.304Z,95.30
2019-05-02T11:23:27.760Z,95.40
2019-05-02T11:24:32.264Z,95.40
2019-05-02T11:25:36.637Z,95.50
2019-05-02T11:26:42.815Z,95.60
2019-05-02T11:27:47.089Z,95.60
2019-05-02T11:28:52.180Z,95.60
2019-05-02T11:29:56.649Z,95.90
2019-05-02T11:31:02.670Z,95.90
2019-05-02T11:32:07.133Z,95.80
2019-05-02T11:33:13.329Z,95.90
2019-05-02T11:34:17.564Z,95.70
2019-05-02T11:35:22.394Z,95.80
2019-05-02T11:36:27.523Z,95.80
2019-05-02T11:37:32.835Z,95.90
2019-05-02T11:38:38.509Z,95.80
2019-05-02T11:39:49.686Z,95.70
2019-05-02T11:40:49.465Z,95.50
2019-05-02T11:41:53.911Z,95.20
2019-05-02T11:43:02.806Z,94.60
2019-05-02T11:44:04.527Z,94.20
2019-05-02T11:45:11.967Z,94.20
2019-05-02T11:46:16.456Z,94.10
2019-05-02T11:47:24.842Z,94.10
2019-05-02T11:48:26.908Z,94.20
2019-05-02T11:49:31.987Z,94.20
2019-05-02T11:50:36.603Z,94.30
2019-05-02T11:51:42.202Z,94.60
2019-05-02T11:52:46.777Z,94.80
2019-05-02T11:53:52.738Z,94.90
2019-05-02T11:54:57.259Z,95.20
2019-05-02T11:56:05.651Z,95.10
2019-05-02T11:57:07.769Z,95.30
2019-05-02T11:58:12.606Z,95.20
2019-05-02T11:59:20.796Z,94.80
2019-05-02T12:00:23.212Z,94.80
2019-05-02T12:01:35.628Z,94.50
2019-05-02T12:02:58.164Z,94.60
2019-05-02T12:04:03.016Z,94.20
2019-05-02T12:05:08.890Z,94.30
2019-05-02T12:06:19.142Z,94.20
2019-05-02T12:07:19.733Z,94.50
2019-05-02T12:08:25.183Z,94.00
2019-05-02T12:09:29.575Z,94.00
2019-05-02T12:10:36.657Z,94.00
2019-05-02T12:11:41.750Z,93.80
2019-05-02T12:12:46.169Z,93.70
2019-05-02T12:13:52.741Z,93.50
2019-05-02T12:14:56.488Z,93.30
2019-05-02T12:16:02.726Z,93.20
2019-05-02T12:17:07.655Z,92.60
2019-05-02T12:18:12.199Z,92.30
2019-05-02T12:19:16.722Z,92.30
2019-05-02T12:20:22.788Z,92.30
2019-05-02T12:21:28.167Z,92.20
2019-05-02T12:22:32.557Z,92.20
2019-05-02T12:23:37.025Z,92.40
2019-05-02T12:24:45.379Z,92.10
2019-05-02T12:25:47.599Z,92.20
2019-05-02T12:26:52.803Z,92.10
2019-05-02T12:27:57.387Z,91.60
2019-05-02T12:29:02.599Z,91.90
2019-05-02T12:30:07.459Z,92.00
2019-05-02T12:31:25.737Z,91.70
2019-05-02T12:32:30.041Z,91.60
2019-05-02T12:33:38.595Z,90.70
2019-05-02T12:34:42.949Z,90.40
2019-05-02T12:35:47.276Z,90.00
2019-05-02T12:36:52.312Z,90.20
2019-05-02T12:37:56.837Z,90.20
2019-05-02T12:39:02.455Z,90.10
2019-05-02T12:40:07.273Z,89.10
2019-05-02T12:41:20.267Z,89.60
2019-05-02T12:42:18.105Z,89.70
2019-05-02T12:43:23.043Z,89.10
2019-05-02T12:44:27.506Z,88.00
2019-05-02T12:45:33.561Z,86.30
2019-05-02T12:46:38.129Z,85.80
2019-05-02T12:47:42.910Z,85.70
2019-05-02T12:48:47.389Z,85.60
2019-05-02T12:49:52.029Z,86.50
2019-05-02T12:50:56.461Z,86.70
2019-05-02T12:52:01.776Z,87.20
2019-05-02T12:53:06.384Z,86.90
2019-05-02T12:54:12.407Z,87.10
2019-05-02T12:55:16.988Z,87.70
2019-05-02T12:56:22.976Z,88.10
2019-05-02T12:57:27.444Z,89.50
2019-05-02T12:58:32.532Z,89.80
2019-05-02T12:59:37.273Z,90.00
2019-05-02T13:00:43.074Z,90.10
2019-05-02T13:01:47.781Z,90.40
2019-05-02T13:03:03.292Z,90.60
2019-05-02T13:04:12.476Z,91.00
2019-05-02T13:05:17.105Z,91.30
2019-05-02T13:06:22.078Z,91.40
2019-05-02T13:07:26.616Z,91.60
2019-05-02T13:08:32.359Z,91.70
2019-05-02T13:09:36.917Z,91.80
2019-05-02T13:11:02.009Z,91.60
2019-05-02T13:12:13.298Z,91.80
2019-05-02T13:13:17.706Z,91.20
2019-05-02T13:14:27.624Z,90.90
2019-05-02T13:15:32.923Z,90.70
2019-05-02T13:16:37.484Z,90.70
2019-05-02T13:17:48.400Z,90.50
2019-05-02T13:18:47.844Z,90.60
2019-05-02T13:19:56.936Z,90.50
2019-05-02T13:21:02.042Z,90.50
2019-05-02T13:22:24.299Z,90.70
2019-05-02T13:23:52.244Z,90.80
2019-05-02T13:25:02.506Z,90.10
2019-05-02T13:26:18.152Z,88.90
2019-05-02T13:27:15.492Z,88.70
2019-05-02T13:28:22.255Z,88.60
2019-05-02T13:29:25.859Z,89.00
2019-05-02T13:30:42.786Z,89.30
2019-05-02T13:31:52.992Z,89.10
2019-05-02T13:33:00.140Z,88.70
2019-05-02T13:34:26.344Z,88.00
2019-05-02T13:35:38.217Z,87.90
2019-05-02T13:36:45.640Z,88.50
2019-05-02T13:37:51.758Z,88.90
2019-05-02T13:38:56.463Z,88.90
2019-05-02T13:40:08.939Z,88.60
2019-05-02T13:41:13.396Z,89.00
2019-05-02T13:42:17.913Z,89.90
2019-05-02T13:43:25.002Z,90.00
2019-05-02T13:44:32.650Z,90.20
2019-05-02T13:45:59.927Z,90.20
2019-05-02T13:47:05.670Z,90.10
2019-05-02T13:48:12.100Z,90.40
2019-05-02T13:49:16.346Z,90.60
2019-05-02T13:50:22.358Z,90.40
2019-05-02T13:51:26.900Z,90.40
2019-05-02T13:52:33.092Z,90.50
2019-05-02T13:53:42.493Z,90.90
2019-05-02T13:54:46.864Z,91.40
2019-05-02T13:55:57.883Z,91.80
2019-05-02T13:57:03.100Z,92.00
2019-05-02T13:58:07.816Z,91.90
2019-05-02T13:59:13.014Z,92.60
2019-05-02T14:00:24.910Z,92.10
2019-05-02T14:01:31.633Z,92.10
2019-05-02T14:02:42.770Z,92.30
2019-05-02T14:03:47.245Z,92.90
2019-05-02T14:04:52.188Z,92.50
2019-05-02T14:05:56.717Z,91.70
2019-05-02T14:07:02.982Z,90.80
2019-05-02T14:08:22.742Z,90.20
2019-05-02T14:09:50.234Z,90.10
2019-05-02T14:10:56.035Z,86.70
2019-05-02T14:12:25.703Z,83.20
2019-05-02T14:13:31.624Z,78.50
2019-05-02T14:14:36.217Z,76.50
2019-05-02T14:15:42.095Z,74.90
2019-05-02T14:16:46.733Z,67.50